createdAt,value
2019-01-21T00:01:15.623Z,16.07
2019-01-21T00:03:43.810Z,16.27
2019-01-21T00:06:13.304Z,16.87
2019-01-21T00:08:41.989Z,17.17
2019-01-21T00:11:10.193Z,17.17
2019-01-21T00:13:39.089Z,16.60
2019-01-21T00:16:07.244Z,16.57
2019-01-21T00:18:35.648Z,15.47
2019-01-21T00:21:03.819Z,16.13
2019-01-21T00:23:31.974Z,15.67
2019-01-21T00:26:00.158Z,15.13
2019-01-21T00:28:28.315Z,16.03
2019-01-21T00:30:57.877Z,15.77
2019-01-21T00:33:26.811Z,15.10
2019-01-21T00:35:55.018Z,16.33
2019-01-21T00:38:23.220Z,15.27
2019-01-21T00:40:51.733Z,15.80
2019-01-21T00:43:20.330Z,15.33
2019-01-21T00:45:48.513Z,15.73
2019-01-21T00:48:18.003Z,15.90
2019-01-21T00:50:47.221Z,16.70
2019-01-21T00:53:15.377Z,15.93
2019-01-21T00:55:44.577Z,16.00
2019-01-21T00:58:12.750Z,17.13
2019-01-21T01:00:42.966Z,16.80
2019-01-21T01:03:11.198Z,16.27
2019-01-21T01:05:40.725Z,16.13
2019-01-21T01:08:09.186Z,16.67
2019-01-21T01:10:37.391Z,17.13
2019-01-21T01:13:06.041Z,15.63
2019-01-21T01:15:35.177Z,17.10
2019-01-21T01:18:09.393Z,15.93
2019-01-21T01:20:37.856Z,18.33
2019-01-21T01:23:06.313Z,18.10
2019-01-21T01:25:35.306Z,17.80
2019-01-21T01:28:03.542Z,17.53
2019-01-21T01:30:31.695Z,16.53
2019-01-21T01:33:00.195Z,16.50
2019-01-21T01:35:28.347Z,16.63
2019-01-21T01:37:56.569Z,17.33
2019-01-21T01:40:24.828Z,17.93
2019-01-21T01:42:53.269Z,17.23
2019-01-21T01:45:25.844Z,16.77
2019-01-21T01:48:00.198Z,17.33
2019-01-21T01:50:28.721Z,16.77
2019-01-21T01:52:57.010Z,16.67
2019-01-21T01:55:26.361Z,17.53
2019-01-21T01:57:56.143Z,19.87
2019-01-21T02:00:24.695Z,19.50
2019-01-21T02:02:54.189Z,19.77
2019-01-21T02:05:23.314Z,17.83
2019-01-21T02:07:51.411Z,18.20
2019-01-21T02:10:19.935Z,17.87
2019-01-21T02:12:48.165Z,18.47
2019-01-21T02:15:16.600Z,18.70
2019-01-21T02:17:51.847Z,20.33
2019-01-21T02:20:13.501Z,20.90
2019-01-21T02:22:44.230Z,21.97
2019-01-21T02:25:13.414Z,22.47
2019-01-21T02:28:07.698Z,21.03
2019-01-21T02:31:26.771Z,20.93
2019-01-21T02:34:09.073Z,17.27
2019-01-21T02:37:14.895Z,17.70
2019-01-21T02:40:02.608Z,16.60
2019-01-21T02:42:54.989Z,18.50
2019-01-21T02:45:51.131Z,17.33
2019-01-21T02:48:57.156Z,17.63
2019-01-21T02:52:00.103Z,17.90
2019-01-21T02:54:39.413Z,16.70
2019-01-21T02:57:51.304Z,18.33
2019-01-21T03:00:39.458Z,18.77
2019-01-21T03:03:32.066Z,19.23
2019-01-21T03:06:38.128Z,18.67
2019-01-21T03:09:29.100Z,19.93
2019-01-21T03:12:22.210Z,18.87
2019-01-21T03:15:25.491Z,19.07
2019-01-21T03:18:29.600Z,17.47
2019-01-21T03:21:32.396Z,18.17
2019-01-21T03:24:44.577Z,16.67
2019-01-21T03:28:01.370Z,17.47
2019-01-21T03:31:20.684Z,18.03
2019-01-21T03:34:46.574Z,16.60
2019-01-21T03:37:42.311Z,19.00
2019-01-21T03:40:53.757Z,17.53
2019-01-21T03:44:10.674Z,16.97
2019-01-21T03:47:20.216Z,17.27
2019-01-21T03:50:27.149Z,19.00
2019-01-21T03:53:24.037Z,19.00
2019-01-21T03:55:56.203Z,18.60
2019-01-21T03:58:40.786Z,19.70
2019-01-21T04:01:40.267Z,18.10
2019-01-21T04:04:46.343Z,17.63
2019-01-21T04:07:52.503Z,17.67
2019-01-21T04:10:59.493Z,18.43
2019-01-21T04:14:33.967Z,18.23
2019-01-21T04:17:34.431Z,18.00
2019-01-21T04:20:22.298Z,16.77
2019-01-21T04:23:11.229Z,17.70
2019-01-21T04:26:00.833Z,17.43
2019-01-21T04:28:36.396Z,17.67
2019-01-21T04:31:46.438Z,16.50
2019-01-21T04:35:05.587Z,16.67
2019-01-21T04:37:53.829Z,16.43
2019-01-21T04:41:00.905Z,16.07
2019-01-21T04:44:28.954Z,16.70
2019-01-21T04:47:37.461Z,16.30
2019-01-21T04:50:32.676Z,16.57
2019-01-21T04:53:24.213Z,16.03
2019-01-21T04:56:36.216Z,17.20
2019-01-21T04:59:29.634Z,17.27
2019-01-21T05:02:30.902Z,16.67
2019-01-21T05:05:31.170Z,17.00
2019-01-21T05:08:36.100Z,15.87
2019-01-21T05:11:29.787Z,17.17
2019-01-21T05:14:17.003Z,17.87
2019-01-21T05:17:21.130Z,16.43
2019-01-21T05:20:52.366Z,16.23
2019-01-21T05:23:58.118Z,17.37
2019-01-21T05:27:08.101Z,19.53
2019-01-21T05:30:36.370Z,16.37
2019-01-21T05:33:42.677Z,16.03
2019-01-21T05:36:25.639Z,16.83
2019-01-21T05:39:24.743Z,17.57
2019-01-21T05:42:30.744Z,17.00
2019-01-21T05:45:22.530Z,17.00
2019-01-21T05:48:29.284Z,17.23
2019-01-21T05:51:54.904Z,19.13
2019-01-21T05:54:56.035Z,19.20
2019-01-21T05:58:04.857Z,18.43
2019-01-21T06:01:20.252Z,17.47
2019-01-21T06:04:27.258Z,16.02
2019-01-21T06:07:49.114Z,16.87
2019-01-21T06:10:32.814Z,16.57
2019-01-21T06:13:46.793Z,17.13
2019-01-21T06:16:24.157Z,16.93
2019-01-21T06:19:37.181Z,16.10
2019-01-21T06:22:45.617Z,15.97
2019-01-21T06:25:38.414Z,17.00
2019-01-21T06:28:33.490Z,17.73
2019-01-21T06:31:39.616Z,18.47
2019-01-21T06:34:55.508Z,16.63
2019-01-21T06:37:39.760Z,18.17
2019-01-21T06:40:31.630Z,16.53
2019-01-21T06:43:35.897Z,16.37
2019-01-21T06:46:59.962Z,18.17
2019-01-21T06:50:10.247Z,16.53
2019-01-21T06:53:28.368Z,17.33
2019-01-21T06:56:29.557Z,16.90
2019-01-21T06:59:27.107Z,18.40
2019-01-21T07:02:36.343Z,16.40
2019-01-21T07:05:23.057Z,17.33
2019-01-21T07:08:25.766Z,18.67
2019-01-21T07:11:19.364Z,17.47
2019-01-21T07:14:18.564Z,16.53
2019-01-21T07:16:58.709Z,17.07
2019-01-21T07:20:12.412Z,16.80
2019-01-21T07:23:31.857Z,16.57
2019-01-21T07:26:11.758Z,16.87
2019-01-21T07:29:12.237Z,16.90
2019-01-21T07:32:18.022Z,16.97
2019-01-21T07:35:31.195Z,16.57
2019-01-21T07:38:21.794Z,17.67
2019-01-21T07:41:12.736Z,17.00
2019-01-21T07:44:25.393Z,18.03
2019-01-21T07:47:36.898Z,18.00
2019-01-21T07:50:37.067Z,18.23
2019-01-21T07:53:27.871Z,16.87
2019-01-21T07:56:33.842Z,17.90
2019-01-21T07:59:32.108Z,19.30
2019-01-21T08:02:21.469Z,20.27
2019-01-21T08:05:31.977Z,22.67
2019-01-21T08:08:13.803Z,19.90
2019-01-21T08:11:03.283Z,21.57
2019-01-21T08:13:44.108Z,21.77
2019-01-21T08:16:44.314Z,21.23
2019-01-21T08:20:09.717Z,21.03
2019-01-21T08:23:18.350Z,21.20
2019-01-21T08:26:15.701Z,21.57
2019-01-21T08:29:14.082Z,19.90
2019-01-21T08:32:24.533Z,21.83
2019-01-21T08:35:17.908Z,21.43
2019-01-21T08:38:15.402Z,22.47
2019-01-21T08:41:40.806Z,22.87
2019-01-21T08:44:51.072Z,22.47
2019-01-21T08:47:29.740Z,27.60
2019-01-21T08:51:01.088Z,22.83
2019-01-21T08:53:52.274Z,23.37
2019-01-21T08:57:01.864Z,23.43
2019-01-21T08:59:49.235Z,24.07
2019-01-21T09:02:58.754Z,23.77
2019-01-21T09:05:55.854Z,22.93
2019-01-21T09:09:07.990Z,22.73
2019-01-21T09:12:31.119Z,24.83
2019-01-21T09:15:34.583Z,24.83
2019-01-21T09:18:53.333Z,22.53
2019-01-21T09:21:49.713Z,23.67
2019-01-21T09:25:00.345Z,23.17
2019-01-21T09:28:11.200Z,22.10
2019-01-21T09:31:03.250Z,22.97
2019-01-21T09:34:18.301Z,22.87
2019-01-21T09:37:21.836Z,22.87
2019-01-21T09:40:27.152Z,23.20
2019-01-21T09:43:13.154Z,21.50
2019-01-21T09:46:25.842Z,21.53
2019-01-21T09:48:54.398Z,22.63
2019-01-21T09:51:22.804Z,22.43
2019-01-21T09:53:56.339Z,22.83
2019-01-21T09:56:28.077Z,21.00
2019-01-21T09:58:58.371Z,22.77
2019-01-21T10:01:26.577Z,21.80
2019-01-21T10:03:54.833Z,26.17
2019-01-21T10:06:45.556Z,23.57
2019-01-21T10:09:48.265Z,23.97
2019-01-21T10:13:08.692Z,24.00
2019-01-21T10:16:18.340Z,25.30
2019-01-21T10:19:11.065Z,23.60
2019-01-21T10:22:36.752Z,24.87
2019-01-21T10:25:33.367Z,25.20
2019-01-21T10:28:30.186Z,24.87
2019-01-21T10:31:35.166Z,24.10
2019-01-21T10:34:35.806Z,23.03
2019-01-21T10:38:01.267Z,21.37
2019-01-21T10:40:43.335Z,21.80
2019-01-21T10:43:48.195Z,22.63
2019-01-21T10:46:53.064Z,24.13
2019-01-21T10:49:57.501Z,22.33
2019-01-21T10:52:48.977Z,23.53
2019-01-21T10:55:39.633Z,22.43
2019-01-21T10:58:25.640Z,23.57
2019-01-21T11:01:42.536Z,22.77
2019-01-21T11:04:24.431Z,22.87
2019-01-21T11:07:31.335Z,22.50
2019-01-21T11:10:32.688Z,23.63
2019-01-21T11:13:44.399Z,20.60
2019-01-21T11:17:18.794Z,20.87
2019-01-21T11:20:15.669Z,19.60
2019-01-21T11:23:00.903Z,20.37
2019-01-21T11:26:06.581Z,20.50
2019-01-21T11:29:08.409Z,21.67
2019-01-21T11:31:55.306Z,21.93
2019-01-21T11:35:05.121Z,20.13
2019-01-21T11:38:01.607Z,21.93
2019-01-21T11:41:00.221Z,20.37
2019-01-21T11:44:00.252Z,20.60
2019-01-21T11:47:10.041Z,19.30
2019-01-21T11:50:22.214Z,20.37
2019-01-21T11:53:32.535Z,19.30
2019-01-21T11:56:16.298Z,19.10
2019-01-21T11:59:21.874Z,17.97
2019-01-21T12:02:18.266Z,18.33
2019-01-21T12:05:08.709Z,17.92
2019-01-21T12:08:34.406Z,18.87
2019-01-21T12:11:46.881Z,16.10
2019-01-21T12:14:51.732Z,17.07
2019-01-21T12:17:59.714Z,15.70
2019-01-21T12:21:15.443Z,16.33
2019-01-21T12:24:17.288Z,18.23
2019-01-21T12:27:17.052Z,17.33
2019-01-21T12:29:57.939Z,15.30
2019-01-21T12:32:59.563Z,16.33
2019-01-21T12:35:52.816Z,18.63
2019-01-21T12:38:45.956Z,16.87
2019-01-21T12:41:45.919Z,16.60
2019-01-21T12:44:42.991Z,16.10
2019-01-21T12:47:34.876Z,16.23
2019-01-21T12:50:43.690Z,17.27
2019-01-21T12:53:49.699Z,18.17
2019-01-21T12:57:16.104Z,16.75
2019-01-21T13:00:09.110Z,16.43
2019-01-21T13:03:07.730Z,16.03
2019-01-21T13:05:57.326Z,15.00
2019-01-21T13:08:43.186Z,16.05
2019-01-21T13:11:41.731Z,15.93
2019-01-21T13:14:57.974Z,15.60
2019-01-21T13:18:20.421Z,16.63
2019-01-21T13:21:51.437Z,19.20
2019-01-21T13:24:51.039Z,17.48
2019-01-21T13:27:46.188Z,18.23
2019-01-21T13:30:43.558Z,18.50
2019-01-21T13:33:36.923Z,18.03
2019-01-21T13:36:43.277Z,17.67
2019-01-21T13:39:49.230Z,18.07
2019-01-21T13:42:56.030Z,17.60
2019-01-21T13:46:14.260Z,16.23
2019-01-21T13:49:17.363Z,16.60
2019-01-21T13:52:05.194Z,16.40
2019-01-21T13:54:55.483Z,17.07
2019-01-21T13:58:20.312Z,17.15
2019-01-21T14:01:07.506Z,17.23
2019-01-21T14:04:17.715Z,19.17
2019-01-21T14:07:23.544Z,19.00
2019-01-21T14:10:25.786Z,18.20
2019-01-21T14:13:29.063Z,17.60
2019-01-21T14:16:12.981Z,17.47
2019-01-21T14:19:16.543Z,17.07
2019-01-21T14:22:12.139Z,17.87
2019-01-21T14:25:10.439Z,16.87
2019-01-21T14:28:14.566Z,17.90
2019-01-21T14:31:19.282Z,17.63
2019-01-21T14:34:07.445Z,18.40
2019-01-21T14:37:12.467Z,18.50
2019-01-21T14:39:53.618Z,17.17
2019-01-21T14:43:00.921Z,17.43
2019-01-21T14:46:14.469Z,18.27
2019-01-21T14:49:13.729Z,16.57
2019-01-21T14:52:24.255Z,17.23
2019-01-21T14:55:20.725Z,18.73
2019-01-21T14:58:35.670Z,17.73
2019-01-21T15:01:41.091Z,18.17
2019-01-21T15:04:50.823Z,17.03
2019-01-21T15:07:47.989Z,17.23
2019-01-21T15:10:36.836Z,17.53
2019-01-21T15:13:30.940Z,19.00
2019-01-21T15:16:20.494Z,18.83
2019-01-21T15:19:14.270Z,19.20
2019-01-21T15:22:24.847Z,19.40
2019-01-21T15:25:40.938Z,20.23
2019-01-21T15:28:37.042Z,18.90
2019-01-21T15:31:27.358Z,19.63
2019-01-21T15:34:10.913Z,20.72
2019-01-21T15:37:16.935Z,19.12
2019-01-21T15:40:25.764Z,18.80
2019-01-21T15:43:19.414Z,18.20
2019-01-21T15:46:30.330Z,20.77
2019-01-21T15:49:34.433Z,19.47
2019-01-21T15:52:50.524Z,20.63
2019-01-21T15:55:56.115Z,21.50
2019-01-21T15:59:11.527Z,19.02
2019-01-21T16:02:42.738Z,18.97
2019-01-21T16:06:07.370Z,20.63
2019-01-21T16:09:26.717Z,18.67
2019-01-21T16:12:07.142Z,19.53
2019-01-21T16:14:50.350Z,19.40
2019-01-21T16:17:48.810Z,19.03
2019-01-21T16:20:48.159Z,19.83
2019-01-21T16:24:10.453Z,20.13
2019-01-21T16:27:00.976Z,20.17
2019-01-21T16:30:04.908Z,18.73
2019-01-21T16:33:03.882Z,18.90
2019-01-21T16:36:10.625Z,20.00
2019-01-21T16:38:58.209Z,19.50
2019-01-21T16:41:51.755Z,20.27
2019-01-21T16:44:32.990Z,19.17
2019-01-21T16:47:03.289Z,20.03
2019-01-21T16:49:36.707Z,18.27
2019-01-21T16:52:14.783Z,19.20
2019-01-21T16:54:43.598Z,18.80
2019-01-21T16:57:12.780Z,20.13
2019-01-21T16:59:44.134Z,22.00
2019-01-21T17:02:12.533Z,20.73
2019-01-21T17:04:52.867Z,19.60
2019-01-21T17:07:21.071Z,21.53
2019-01-21T17:09:50.239Z,22.03
2019-01-21T17:12:18.441Z,21.33
2019-01-21T17:14:46.727Z,22.10
2019-01-21T17:17:14.986Z,20.83
2019-01-21T17:19:48.123Z,20.50
2019-01-21T17:22:19.412Z,20.73
2019-01-21T17:24:51.673Z,20.73
2019-01-21T17:27:21.973Z,22.25
2019-01-21T17:29:54.429Z,20.87
2019-01-21T17:32:23.283Z,19.77
2019-01-21T17:34:51.336Z,19.30
2019-01-21T17:37:19.496Z,18.23
2019-01-21T17:39:48.709Z,19.63
2019-01-21T17:42:17.124Z,20.10
2019-01-21T17:44:46.230Z,19.23
2019-01-21T17:47:16.933Z,20.43
2019-01-21T17:49:45.218Z,27.63
2019-01-21T17:52:13.569Z,20.13
2019-01-21T17:54:42.130Z,20.53
2019-01-21T17:57:12.094Z,19.73
2019-01-21T17:59:48.627Z,21.03
2019-01-21T18:02:19.116Z,21.03
2019-01-21T18:04:48.364Z,21.30
2019-01-21T18:07:17.772Z,23.07
2019-01-21T18:09:47.265Z,24.67
2019-01-21T18:12:15.421Z,23.22
2019-01-21T18:14:44.272Z,22.03
2019-01-21T18:17:13.543Z,19.87
2019-01-21T18:19:50.653Z,21.50
2019-01-21T18:22:18.915Z,22.60
2019-01-21T18:24:47.433Z,24.57
2019-01-21T18:27:16.517Z,24.80
2019-01-21T18:29:54.458Z,22.73
2019-01-21T18:32:23.680Z,21.67
2019-01-21T18:35:02.867Z,20.60
2019-01-21T18:37:33.502Z,20.20
2019-01-21T18:40:10.262Z,19.87
2019-01-21T18:42:38.474Z,20.93
2019-01-21T18:45:07.328Z,20.23
2019-01-21T18:47:36.583Z,21.53
2019-01-21T18:50:10.859Z,21.57
2019-01-21T18:52:39.039Z,21.57
2019-01-21T18:55:08.533Z,21.97
2019-01-21T18:57:36.727Z,24.10
2019-01-21T19:00:18.425Z,23.90
2019-01-21T19:02:53.035Z,22.37
2019-01-21T19:05:21.256Z,23.90
2019-01-21T19:07:51.688Z,23.93
2019-01-21T19:10:20.422Z,24.03
2019-01-21T19:12:48.760Z,25.23
2019-01-21T19:15:23.089Z,28.57
2019-01-21T19:17:51.330Z,25.33
2019-01-21T19:20:20.059Z,25.20
2019-01-21T19:22:48.313Z,23.53
2019-01-21T19:25:17.093Z,22.65
2019-01-21T19:27:45.301Z,23.63
2019-01-21T19:30:17.124Z,26.80
2019-01-21T19:32:45.752Z,27.30
2019-01-21T19:35:15.854Z,25.17
2019-01-21T19:37:44.333Z,26.57
2019-01-21T19:40:15.409Z,27.73
2019-01-21T19:42:43.969Z,28.23
2019-01-21T19:45:12.555Z,29.90
2019-01-21T19:47:40.739Z,26.13
2019-01-21T19:50:10.303Z,28.73
2019-01-21T19:52:38.542Z,27.63
2019-01-21T19:55:10.652Z,31.63
2019-01-21T19:57:39.923Z,34.97
2019-01-21T20:00:12.501Z,34.93
2019-01-21T20:02:40.717Z,31.83
2019-01-21T20:05:09.304Z,30.33
2019-01-21T20:07:37.902Z,29.03
2019-01-21T20:10:07.717Z,25.37
2019-01-21T20:12:35.880Z,22.30
2019-01-21T20:15:05.111Z,23.77
2019-01-21T20:17:33.813Z,22.27
2019-01-21T20:20:02.048Z,24.97
2019-01-21T20:22:30.198Z,24.40
2019-01-21T20:25:00.430Z,24.70
2019-01-21T20:27:29.066Z,25.90
2019-01-21T20:29:57.299Z,28.77
2019-01-21T20:32:25.446Z,27.37
2019-01-21T20:34:53.624Z,25.50
2019-01-21T20:37:22.370Z,25.93
2019-01-21T20:39:51.726Z,25.17
2019-01-21T20:42:19.686Z,25.83
2019-01-21T20:44:49.514Z,26.03
2019-01-21T20:47:18.591Z,22.43
2019-01-21T20:49:47.150Z,28.20
2019-01-21T20:52:15.352Z,26.47
2019-01-21T20:54:43.904Z,27.10
2019-01-21T20:57:13.131Z,24.30
2019-01-21T20:59:42.328Z,23.73
2019-01-21T21:02:10.516Z,23.40
2019-01-21T21:04:38.690Z,23.87
2019-01-21T21:07:07.884Z,27.53
2019-01-21T21:09:36.050Z,24.02
2019-01-21T21:12:05.250Z,23.80
2019-01-21T21:14:33.696Z,23.75
2019-01-21T21:17:02.923Z,25.10
2019-01-21T21:19:32.517Z,25.67
2019-01-21T21:22:01.714Z,24.53
2019-01-21T21:24:29.887Z,25.63
2019-01-21T21:26:58.090Z,27.70
2019-01-21T21:29:26.936Z,25.63
2019-01-21T21:31:55.185Z,25.03
2019-01-21T21:34:24.586Z,25.40
2019-01-21T21:36:52.973Z,24.60
2019-01-21T21:39:21.694Z,25.53
2019-01-21T21:41:49.884Z,24.23
2019-01-21T21:44:18.056Z,24.43
2019-01-21T21:46:46.580Z,24.13
2019-01-21T21:49:15.701Z,25.23
2019-01-21T21:51:43.809Z,25.40
2019-01-21T21:54:11.968Z,25.62
2019-01-21T21:56:40.221Z,26.07
2019-01-21T21:59:08.422Z,25.87
2019-01-21T22:01:55.996Z,29.23
2019-01-21T22:04:25.602Z,27.50
2019-01-21T22:06:54.771Z,28.33
2019-01-21T22:09:23.305Z,26.83
2019-01-21T22:11:51.510Z,28.57
2019-01-21T22:14:19.666Z,29.80
2019-01-21T22:16:47.853Z,28.40
2019-01-21T22:19:16.025Z,29.13
2019-01-21T22:21:44.582Z,28.00
2019-01-21T22:24:13.089Z,29.67
2019-01-21T22:26:41.635Z,30.53
2019-01-21T22:29:09.846Z,30.03
2019-01-21T22:31:38.062Z,27.50
2019-01-21T22:34:06.184Z,28.80
2019-01-21T22:36:34.592Z,26.57
2019-01-21T22:39:02.740Z,25.50
2019-01-21T22:41:34.529Z,25.20
2019-01-21T22:44:12.979Z,25.62
2019-01-21T22:46:41.211Z,25.67
2019-01-21T22:49:09.363Z,24.63
2019-01-21T22:51:37.939Z,24.13
2019-01-21T22:54:06.518Z,24.80
2019-01-21T22:56:36.086Z,22.97
2019-01-21T22:59:05.222Z,25.07
2019-01-21T23:01:33.839Z,24.93
2019-01-21T23:04:02.244Z,25.60
2019-01-21T23:06:30.871Z,24.23
2019-01-21T23:08:59.420Z,23.67
2019-01-21T23:11:27.698Z,24.33
2019-01-21T23:13:56.550Z,23.50
2019-01-21T23:16:24.708Z,24.63
2019-01-21T23:18:52.859Z,23.73
2019-01-21T23:21:21.043Z,26.87
2019-01-21T23:23:49.537Z,25.03
2019-01-21T23:26:19.171Z,27.30
2019-01-21T23:28:47.403Z,23.53
2019-01-21T23:31:15.873Z,23.77
2019-01-21T23:33:44.419Z,27.53
2019-01-21T23:36:16.735Z,24.27
2019-01-21T23:38:49.229Z,23.83
2019-01-21T23:41:17.787Z,24.57
2019-01-21T23:43:45.977Z,25.30
2019-01-21T23:46:14.138Z,22.43
2019-01-21T23:48:42.316Z,23.30
2019-01-21T23:51:12.835Z,23.73
2019-01-21T23:53:41.267Z,23.90
2019-01-21T23:56:10.728Z,23.00
2019-01-21T23:58:42.201Z,24.10
